Time;durP1;ratioP1;P1;durP2;ratioP2;P2;SDS_P1;SDS_P2;PMS_P1;PMS_P2;Temp;Humidity;BMP_temperature;BMP_pressure;BME280_temperature;BME280_humidity;BME280_pressure;Samples;Min_cycle;Max_cycle;Signal;HPM_P1;HPM_P2
2022/05/28 00:01:52;;;;;;;11.20;2.30;;;11.40;99.90;;;-146.41;100.00;57768.22;5017435;28;20342;-71
2022/05/28 00:04:20;;;;;;;11.25;2.08;;;11.40;99.90;;;-146.41;100.00;57768.22;5014122;28;20074;-71
2022/05/28 00:06:47;;;;;;;8.90;1.60;;;11.40;99.90;;;-146.41;100.00;57768.22;5015218;28;20223;-71
2022/05/28 00:09:14;;;;;;;13.60;2.50;;;11.30;99.90;;;-146.41;100.00;57768.22;5013593;28;20594;-72
2022/05/28 00:11:42;;;;;;;10.20;2.03;;;11.20;99.90;;;-146.41;100.00;57768.22;5017896;28;20041;-71
2022/05/28 00:14:10;;;;;;;15.02;2.67;;;11.20;99.90;;;-146.41;100.00;57768.22;5017294;28;20118;-72
2022/05/28 00:16:39;;;;;;;9.50;1.90;;;11.20;99.90;;;-146.41;100.00;57768.22;5015459;28;20137;-71
2022/05/28 00:19:07;;;;;;;13.98;2.95;;;11.10;99.90;;;-146.41;100.00;57768.22;5014057;28;20048;-71
2022/05/28 00:21:35;;;;;;;8.77;1.80;;;11.10;99.90;;;-146.41;100.00;57768.22;5018251;28;20041;-71
2022/05/28 00:24:03;;;;;;;11.73;2.60;;;11.10;99.90;;;-146.41;100.00;57768.22;5016204;28;20099;-71
2022/05/28 00:26:30;;;;;;;12.73;1.98;;;11.00;99.90;;;-146.41;100.00;57768.22;5003040;28;20053;-71
2022/05/28 00:28:58;;;;;;;12.18;1.80;;;10.90;99.90;;;-146.41;100.00;57768.22;5016420;28;20585;-72
2022/05/28 00:31:25;;;;;;;10.23;2.03;;;10.80;99.90;;;-146.41;100.00;57768.22;5016157;28;20533;-71
2022/05/28 00:33:52;;;;;;;10.93;1.95;;;10.80;99.90;;;-146.41;100.00;57768.22;4999018;28;20072;-71
2022/05/28 00:36:19;;;;;;;6.55;1.73;;;10.60;99.90;;;-146.41;100.00;57768.22;5016371;28;20122;-71
2022/05/28 00:38:46;;;;;;;12.32;2.47;;;10.60;99.90;;;-146.41;100.00;57768.22;5013066;28;20069;-71
2022/05/28 00:41:14;;;;;;;14.73;2.20;;;10.50;99.90;;;-146.41;100.00;57768.22;5017140;28;20168;-71
2022/05/28 00:43:44;;;;;;;14.80;3.15;;;10.60;99.90;;;-146.41;100.00;57768.22;5011021;28;20096;-71
2022/05/28 00:46:17;;;;;;;11.35;2.42;;;10.60;99.90;;;-146.41;100.00;57768.22;5016074;28;20140;-71
2022/05/28 00:48:49;;;;;;;8.93;2.88;;;10.50;99.90;;;-146.41;100.00;57768.22;5014605;28;20045;-71
2022/05/28 00:51:41;;;;;;;11.70;3.13;;;10.50;99.90;;;-146.41;100.00;57768.22;5013605;28;20081;-71
2022/05/28 00:54:10;;;;;;;10.23;2.08;;;10.40;99.90;;;-146.41;100.00;57768.22;5017480;28;20053;-72
2022/05/28 00:56:37;;;;;;;8.48;1.40;;;10.50;99.90;;;-146.41;100.00;57768.22;5011944;28;20068;-72
2022/05/28 00:59:04;;;;;;;8.15;2.03;;;10.30;99.90;;;-146.41;100.00;57768.22;5013362;28;20120;-72
2022/05/28 01:01:34;;;;;;;9.02;1.30;;;10.40;99.90;;;-146.41;100.00;57768.22;5017013;28;20077;-72
2022/05/28 01:04:34;;;;;;;9.93;1.73;;;10.20;99.90;;;-146.41;100.00;57768.22;5015884;28;20046;-71
2022/05/28 01:07:29;;;;;;;11.50;2.15;;;10.20;99.90;;;-146.41;100.00;57768.22;5014682;28;20144;-72
2022/05/28 01:10:17;;;;;;;9.43;1.75;;;10.10;99.90;;;-146.41;100.00;57768.22;5017766;28;20145;-71
2022/05/28 01:13:06;;;;;;;9.23;1.90;;;10.10;99.90;;;-146.41;100.00;57768.22;5033665;28;20066;-72
2022/05/28 01:15:40;;;;;;;4.70;1.30;;;10.00;99.90;;;-146.41;100.00;57768.22;5015924;28;20088;-72
2022/05/28 01:18:21;;;;;;;9.52;2.10;;;9.80;99.90;;;-146.41;100.00;57768.22;5018665;28;20499;-71
2022/05/28 01:20:53;;;;;;;6.45;1.38;;;9.80;99.90;;;-146.41;100.00;57768.22;5021842;28;20107;-71
2022/05/28 01:23:44;;;;;;;9.43;1.83;;;9.70;99.90;;;-146.41;100.00;57768.22;5012110;28;20057;-71
2022/05/28 01:26:24;;;;;;;10.50;1.73;;;9.60;99.90;;;-146.41;100.00;57768.22;5023763;28;20163;-70
2022/05/28 01:28:59;;;;;;;7.40;1.23;;;9.50;99.90;;;-146.41;100.00;57768.22;5016633;28;20195;-71
2022/05/28 01:31:27;;;;;;;5.93;1.33;;;9.40;99.90;;;-146.41;100.00;57768.22;5020651;28;20093;-71
2022/05/28 01:33:55;;;;;;;6.72;1.63;;;9.30;99.90;;;-146.41;100.00;57768.22;5025622;28;20136;-71
2022/05/28 01:36:24;;;;;;;8.13;2.22;;;9.20;99.90;;;-146.41;100.00;57768.22;5018284;28;20073;-71
2022/05/28 01:38:53;;;;;;;6.00;1.67;;;9.10;99.90;;;-146.41;100.00;57768.22;5023831;28;20076;-71
2022/05/28 01:41:22;;;;;;;8.02;1.90;;;9.00;99.90;;;-146.41;100.00;57768.22;5024290;28;20466;-71
2022/05/28 01:43:51;;;;;;;4.93;1.30;;;9.00;99.90;;;-146.41;100.00;57768.22;5013712;28;20500;-71
2022/05/28 01:46:20;;;;;;;12.25;2.38;;;9.00;99.90;;;-146.41;100.00;57768.22;5019155;28;20588;-71
2022/05/28 01:48:53;;;;;;;5.63;1.73;;;8.90;99.90;;;-146.41;100.00;57768.22;5019415;28;20133;-71
2022/05/28 01:51:25;;;;;;;8.73;1.92;;;8.80;99.90;;;-146.41;100.00;57768.22;5023140;28;20053;-71
2022/05/28 01:54:12;;;;;;;8.20;2.03;;;8.60;99.90;;;-146.41;100.00;57768.22;5024350;28;20050;-71
2022/05/28 01:56:44;;;;;;;6.05;1.70;;;8.60;99.90;;;-146.41;100.00;57768.22;5027022;28;20049;-71
2022/05/28 01:59:20;;;;;;;9.18;2.10;;;8.40;99.90;;;-146.41;100.00;57768.22;5021731;28;20088;-71
2022/05/28 02:01:47;;;;;;;8.00;1.67;;;8.20;99.90;;;-146.41;100.00;57768.22;5022284;28;20124;-71
2022/05/28 02:04:14;;;;;;;7.68;2.03;;;8.00;99.90;;;-146.41;100.00;57768.22;5015634;28;20145;-70
2022/05/28 02:06:42;;;;;;;8.65;2.13;;;8.00;99.90;;;-146.41;100.00;57768.22;5026280;28;20182;-71
2022/05/28 02:09:15;;;;;;;6.68;1.60;;;7.90;99.90;;;-146.41;100.00;57768.22;5025196;28;20429;-71
2022/05/28 02:11:57;;;;;;;8.25;1.50;;;7.90;99.90;;;-146.41;100.00;57768.22;5020592;28;20092;-71
2022/05/28 02:15:03;;;;;;;10.13;2.70;;;7.80;99.90;;;-146.41;100.00;57768.22;5023062;28;20077;-71
2022/05/28 02:17:53;;;;;;;9.05;2.22;;;7.70;99.90;;;-146.41;100.00;57768.22;5008091;28;20132;-70
2022/05/28 02:20:53;;;;;;;10.52;2.30;;;7.70;99.90;;;-146.41;100.00;57768.22;5023798;28;20065;-71
2022/05/28 02:23:47;;;;;;;8.95;2.00;;;7.60;99.90;;;-146.41;100.00;57768.22;5020989;28;20049;-71
2022/05/28 02:26:43;;;;;;;7.38;2.03;;;7.60;99.90;;;-146.41;100.00;57768.22;5024142;28;20125;-71
2022/05/28 02:29:11;;;;;;;6.63;1.73;;;7.50;99.90;;;-146.41;100.00;57768.22;5027232;28;20083;-72
2022/05/28 02:31:45;;;;;;;6.10;1.50;;;7.50;99.90;;;-146.41;100.00;57768.22;5018807;28;20045;-71
2022/05/28 02:34:12;;;;;;;9.73;2.03;;;7.40;99.90;;;-146.41;100.00;57768.22;5024913;28;20129;-71
2022/05/28 02:36:41;;;;;;;9.73;1.80;;;7.40;99.90;;;-146.41;100.00;57768.22;5025046;28;20081;-71
2022/05/28 02:39:08;;;;;;;9.52;1.70;;;7.20;99.90;;;-146.41;100.00;57768.22;5024021;28;20069;-71
2022/05/28 02:41:35;;;;;;;7.75;1.60;;;7.30;99.90;;;-146.41;100.00;57768.22;5024990;28;20125;-71
2022/05/28 02:44:03;;;;;;;7.30;1.40;;;7.30;99.90;;;-146.41;100.00;57768.22;5028343;28;20331;-72
2022/05/28 02:46:30;;;;;;;11.13;1.60;;;7.20;99.90;;;-146.41;100.00;57768.22;5024032;28;20476;-71
2022/05/28 02:48:59;;;;;;;8.85;2.33;;;;;;;-146.41;100.00;57768.22;5025275;28;20135;-71
2022/05/28 02:51:26;;;;;;;8.60;1.50;;;6.10;99.90;;;-146.41;100.00;57768.22;5022686;28;20128;-71
2022/05/28 02:53:54;;;;;;;7.30;1.95;;;7.10;99.90;;;-146.41;100.00;57768.22;5025361;28;20100;-72
2022/05/28 02:56:22;;;;;;;4.80;1.40;;;7.20;99.90;;;-146.41;100.00;57768.22;5022266;28;20133;-71
2022/05/28 02:58:49;;;;;;;7.07;1.42;;;7.20;99.90;;;-146.41;100.00;57768.22;5031262;28;20137;-71
2022/05/28 03:01:34;;;;;;;9.85;1.67;;;7.00;99.90;;;-146.41;100.00;57768.22;5028918;28;20136;-71
2022/05/28 03:04:04;;;;;;;9.60;1.38;;;7.10;99.90;;;-146.41;100.00;57768.22;5029937;28;20169;-71
2022/05/28 03:06:32;;;;;;;6.40;1.45;;;7.00;99.90;;;-146.41;100.00;57768.22;5029249;28;20057;-71
2022/05/28 03:08:59;;;;;;;8.10;1.48;;;6.90;99.90;;;-146.41;100.00;57768.22;5026081;28;20073;-71
2022/05/28 03:11:26;;;;;;;5.95;1.52;;;7.00;99.90;;;-146.41;100.00;57768.22;5024983;28;20136;-72
2022/05/28 03:13:52;;;;;;;6.82;1.58;;;7.00;99.90;;;-146.41;100.00;57768.22;5030557;28;20467;-71
2022/05/28 03:16:20;;;;;;;5.95;1.42;;;6.90;99.90;;;-146.41;100.00;57768.22;5030695;28;20084;-71
2022/05/28 03:18:47;;;;;;;10.63;1.80;;;6.80;99.90;;;-146.41;100.00;57768.22;5025837;28;20474;-70
2022/05/28 03:21:14;;;;;;;7.40;1.63;;;6.70;99.90;;;-146.41;100.00;57768.22;5029676;28;20519;-70
2022/05/28 03:23:41;;;;;;;4.10;1.27;;;6.60;99.90;;;-146.41;100.00;57768.22;5026980;28;20046;-73
2022/05/28 03:26:24;;;;;;;7.03;1.40;;;6.60;99.90;;;-146.41;100.00;57768.22;5025943;28;20077;-72
2022/05/28 03:28:52;;;;;;;6.60;1.55;;;6.50;99.90;;;-146.41;100.00;57768.22;5028138;28;20060;-72
2022/05/28 03:31:19;;;;;;;7.00;1.45;;;6.50;99.90;;;-146.41;100.00;57768.22;5030211;28;20104;-72
2022/05/28 03:33:46;;;;;;;5.13;1.30;;;6.40;99.90;;;-146.41;100.00;57768.22;5021956;28;20051;-72
2022/05/28 03:36:14;;;;;;;5.25;1.30;;;6.40;99.90;;;-146.41;100.00;57768.22;5026533;28;20144;-72
2022/05/28 03:38:44;;;;;;;7.82;1.75;;;;;;;-146.41;100.00;57768.22;5026999;28;20072;-72
2022/05/28 03:41:11;;;;;;;7.50;1.90;;;;;;;-146.41;100.00;57768.22;5023336;28;20155;-72
2022/05/28 03:43:38;;;;;;;7.72;1.48;;;6.60;99.90;;;-146.41;100.00;57768.22;5030305;28;20045;-73
2022/05/28 03:46:21;;;;;;;6.40;1.70;;;6.70;99.90;;;-146.41;100.00;57768.22;5025990;28;20045;-72
2022/05/28 03:48:48;;;;;;;10.45;1.50;;;6.70;99.90;;;-146.41;100.00;57768.22;5025498;28;20115;-73
2022/05/28 03:51:15;;;;;;;8.52;1.63;;;6.70;99.90;;;-146.41;100.00;57768.22;5021627;28;20050;-73
2022/05/28 03:53:42;;;;;;;6.35;1.40;;;6.70;99.90;;;-146.41;100.00;57768.22;5024902;28;20054;-72
2022/05/28 03:56:10;;;;;;;9.73;1.95;;;6.80;99.90;;;-146.41;100.00;57768.22;5027800;28;20144;-72
2022/05/28 03:58:37;;;;;;;8.15;2.00;;;6.90;99.90;;;-146.41;100.00;57768.22;5017310;28;20050;-72
2022/05/28 04:01:04;;;;;;;7.00;2.25;;;6.90;99.90;;;-146.41;100.00;57768.22;5028069;28;20573;-72
2022/05/28 04:03:31;;;;;;;6.43;1.55;;;6.80;99.90;;;-146.41;100.00;57768.22;5025579;28;20387;-72
2022/05/28 04:05:58;;;;;;;9.50;1.95;;;6.90;99.90;;;-146.41;100.00;57768.22;5026929;28;20053;-71
2022/05/28 04:08:25;;;;;;;7.88;1.58;;;6.90;99.90;;;-146.41;100.00;57768.22;5023098;28;20073;-72
2022/05/28 04:10:52;;;;;;;7.28;1.42;;;6.90;99.90;;;-146.41;100.00;57768.22;5025223;28;20050;-72
2022/05/28 04:13:20;;;;;;;6.55;2.20;;;7.00;99.90;;;-146.41;100.00;57768.22;5029477;28;20104;-72
2022/05/28 04:15:50;;;;;;;7.53;1.75;;;7.00;99.90;;;-146.41;100.00;57768.22;5027366;28;20472;-72
2022/05/28 04:18:17;;;;;;;7.05;1.63;;;7.00;99.90;;;-146.41;100.00;57768.22;5026450;28;20551;-72
2022/05/28 04:20:44;;;;;;;7.50;1.40;;;7.00;99.90;;;-146.41;100.00;57768.22;5017562;28;20092;-72
2022/05/28 04:23:12;;;;;;;7.35;1.40;;;7.10;99.90;;;-146.41;100.00;57768.22;5028152;28;20056;-72
2022/05/28 04:25:39;;;;;;;3.55;1.30;;;7.30;99.90;;;-146.41;100.00;57768.22;5025296;28;20111;-72
2022/05/28 04:28:06;;;;;;;7.20;1.67;;;7.40;99.90;;;-146.41;100.00;57768.22;5022829;28;20423;-72
2022/05/28 04:30:33;;;;;;;6.25;1.77;;;7.50;99.90;;;-146.41;100.00;57768.22;5022187;28;20153;-72
2022/05/28 04:33:01;;;;;;;10.30;1.77;;;7.60;99.90;;;-146.41;100.00;57768.22;5026219;28;20526;-72
2022/05/28 04:35:28;;;;;;;7.30;1.35;;;7.70;99.90;;;-146.41;100.00;57768.22;5026664;28;20132;-72
2022/05/28 04:37:55;;;;;;;7.10;1.40;;;7.70;99.90;;;-146.41;100.00;57768.22;5025003;28;20145;-72
2022/05/28 04:40:22;;;;;;;9.48;1.85;;;7.80;99.90;;;-146.41;100.00;57768.22;5027608;28;20088;-72
2022/05/28 04:42:49;;;;;;;9.20;1.92;;;7.90;99.90;;;-146.41;100.00;57768.22;5026378;28;20136;-72
2022/05/28 04:45:16;;;;;;;12.07;1.48;;;8.00;99.90;;;-146.41;100.00;57768.22;5026966;28;20049;-71
2022/05/28 04:47:43;;;;;;;10.65;1.92;;;8.10;99.90;;;-146.41;100.00;57768.22;5028528;28;20123;-72
2022/05/28 04:50:12;;;;;;;9.18;1.80;;;8.20;99.90;;;-146.41;100.00;57768.22;5029221;28;20076;-72
2022/05/28 04:52:39;;;;;;;4.68;1.60;;;8.30;99.90;;;-146.41;100.00;57768.22;5024155;28;20412;-72
2022/05/28 04:55:08;;;;;;;6.10;1.83;;;8.50;99.90;;;-146.41;100.00;57768.22;5026375;28;20141;-72
2022/05/28 04:57:35;;;;;;;6.32;1.48;;;8.50;99.90;;;-146.41;100.00;57768.22;5023689;28;20482;-72
2022/05/28 05:00:11;;;;;;;8.93;1.67;;;8.70;99.90;;;-146.41;100.00;57768.22;5026124;28;20133;-72
2022/05/28 05:02:38;;;;;;;6.80;1.58;;;8.70;99.90;;;-146.41;100.00;57768.22;5026138;28;20555;-72
2022/05/28 05:05:07;;;;;;;5.32;1.20;;;8.90;99.90;;;-146.41;100.00;57768.22;5016223;28;20132;-72
2022/05/28 05:07:34;;;;;;;6.50;1.33;;;9.00;99.90;;;-146.41;100.00;57768.22;5022148;28;20119;-72
2022/05/28 05:10:03;;;;;;;5.88;1.42;;;9.10;99.90;;;-146.41;100.00;57768.22;5027074;28;20053;-72
2022/05/28 05:12:30;;;;;;;5.75;1.42;;;9.20;99.90;;;-146.41;100.00;57768.22;5025942;28;20095;-72
2022/05/28 05:14:57;;;;;;;8.07;1.73;;;9.50;99.90;;;-146.41;100.00;57768.22;5024118;28;20462;-71
2022/05/28 05:17:24;;;;;;;7.65;1.58;;;9.70;99.90;;;-146.41;100.00;57768.22;5026685;28;20139;-71
2022/05/28 05:19:53;;;;;;;5.10;1.23;;;9.90;99.90;;;-146.41;100.00;57768.22;5027142;28;20057;-71
2022/05/28 05:22:20;;;;;;;7.40;2.15;;;10.00;99.90;;;-146.41;100.00;57768.22;5024721;28;20085;-70
2022/05/28 05:24:47;;;;;;;8.57;1.45;;;10.20;99.90;;;-146.41;100.00;57768.22;5015264;28;20413;-71
2022/05/28 05:27:14;;;;;;;9.25;1.70;;;10.40;99.90;;;-146.41;100.00;57768.22;5026258;28;20087;-73
2022/05/28 05:29:41;;;;;;;5.90;1.20;;;10.60;99.90;;;-146.41;100.00;57768.22;5024043;28;20053;-71
2022/05/28 05:32:08;;;;;;;8.38;1.23;;;10.80;99.90;;;-146.41;100.00;57768.22;5025113;28;20107;-71
2022/05/28 05:34:37;;;;;;;8.60;1.50;;;11.00;99.90;;;-146.41;100.00;57768.22;5024478;28;20479;-72
2022/05/28 05:37:05;;;;;;;7.85;1.33;;;11.10;99.90;;;-146.41;100.00;57768.22;5024799;28;20137;-71
2022/05/28 05:39:32;;;;;;;9.35;1.55;;;11.30;99.90;;;-146.41;100.00;57768.22;5026790;28;20045;-72
2022/05/28 05:41:59;;;;;;;8.35;1.45;;;11.60;99.90;;;-146.41;100.00;57768.22;5024066;28;20076;-71
2022/05/28 05:44:26;;;;;;;6.30;1.10;;;11.80;99.90;;;-146.41;100.00;57768.22;5024034;28;20053;-71
2022/05/28 05:46:53;;;;;;;7.43;1.60;;;12.00;99.90;;;-146.41;100.00;57768.22;5024308;28;20164;-72
2022/05/28 05:49:20;;;;;;;8.88;1.35;;;;;;;-146.41;100.00;57768.22;5023217;28;20115;-70
2022/05/28 05:51:48;;;;;;;9.23;1.70;;;12.20;99.90;;;-146.41;100.00;57768.22;5024671;28;20496;-72
2022/05/28 05:54:15;;;;;;;8.52;1.20;;;12.40;99.90;;;-146.41;100.00;57768.22;5024708;28;20392;-71
2022/05/28 05:56:42;;;;;;;9.57;1.85;;;12.50;99.90;;;-146.41;100.00;57768.22;5020006;28;20129;-71
2022/05/28 05:59:09;;;;;;;6.55;1.05;;;12.60;99.90;;;-146.41;100.00;57768.22;5026905;28;20042;-72
2022/05/28 06:01:36;;;;;;;8.18;1.15;;;12.60;99.90;;;-146.41;100.00;57768.22;5023103;28;20052;-72
2022/05/28 06:04:04;;;;;;;9.40;1.23;;;12.50;99.90;;;-146.41;100.00;57768.22;5025686;28;20073;-72
2022/05/28 06:06:31;;;;;;;8.07;1.42;;;12.60;99.90;;;-146.41;100.00;57768.22;5024113;28;20077;-72
2022/05/28 06:08:58;;;;;;;5.38;1.13;;;12.80;99.90;;;-146.41;100.00;57768.22;5028013;28;20088;-72
2022/05/28 06:11:25;;;;;;;9.18;1.48;;;12.80;99.90;;;-146.41;100.00;57768.22;5023229;28;20145;-72
2022/05/28 06:13:52;;;;;;;7.57;1.30;;;13.00;99.90;;;-146.41;100.00;57768.22;5026631;28;20136;-71
2022/05/28 06:16:19;;;;;;;8.55;1.40;;;13.00;99.90;;;-146.41;100.00;57768.22;5023599;28;20042;-71
2022/05/28 06:18:47;;;;;;;11.68;1.83;;;13.10;99.90;;;-146.41;100.00;57768.22;5017944;28;20800;-72
2022/05/28 06:21:14;;;;;;;7.63;1.15;;;13.20;99.90;;;-146.41;100.00;57768.22;5026074;28;20284;-71
2022/05/28 06:23:41;;;;;;;11.98;1.55;;;13.20;99.90;;;-146.41;100.00;57768.22;5025980;28;20073;-72
2022/05/28 06:26:11;;;;;;;9.68;1.70;;;13.30;99.90;;;-146.41;100.00;57768.22;5024972;28;20081;-72
2022/05/28 06:28:39;;;;;;;13.13;2.35;;;13.20;99.90;;;-146.41;100.00;57768.22;5024159;28;20091;-72
2022/05/28 06:31:10;;;;;;;6.45;1.20;;;13.30;99.90;;;-146.41;100.00;57768.22;5024131;28;20088;-72
2022/05/28 06:33:39;;;;;;;16.65;1.58;;;13.40;99.90;;;-146.41;100.00;57768.22;5027292;28;20132;-72
2022/05/28 06:36:09;;;;;;;8.13;1.10;;;13.50;99.90;;;-146.41;100.00;57768.22;5028894;28;20472;-72
2022/05/28 06:38:36;;;;;;;10.60;1.13;;;13.60;99.90;;;-146.41;100.00;57768.22;5030215;28;20505;-72
2022/05/28 06:41:04;;;;;;;8.80;1.38;;;13.70;99.90;;;-146.41;100.00;57768.22;5025854;28;20080;-72
2022/05/28 06:43:31;;;;;;;7.50;1.42;;;13.80;99.90;;;-146.41;100.00;57768.22;5027402;28;20588;-71
2022/05/28 06:46:04;;;;;;;10.18;1.63;;;13.70;99.90;;;-146.41;100.00;57768.22;5029465;28;20053;-71
2022/05/28 06:48:32;;;;;;;9.32;1.27;;;13.80;99.90;;;-146.41;100.00;57768.22;5028610;28;20067;-71
2022/05/28 06:51:01;;;;;;;9.60;1.67;;;13.90;99.90;;;-146.41;100.00;57768.22;5027762;28;20085;-71
2022/05/28 06:53:36;;;;;;;11.13;1.75;;;14.10;99.90;;;-146.41;100.00;57768.22;5026468;28;20077;-72
2022/05/28 06:56:05;;;;;;;10.25;1.75;;;14.20;99.90;;;-146.41;100.00;57768.22;5030011;28;20132;-71
2022/05/28 06:58:32;;;;;;;8.25;1.63;;;14.20;99.90;;;-146.41;100.00;57768.22;5027507;28;20038;-72
2022/05/28 07:00:59;;;;;;;9.18;1.60;;;14.20;99.90;;;-146.41;100.00;57768.22;5027952;28;20152;-72
2022/05/28 07:03:28;;;;;;;8.07;1.10;;;14.10;99.90;;;-146.41;100.00;57768.22;5027604;28;20122;-72
2022/05/28 07:05:56;;;;;;;8.02;1.08;;;14.10;99.90;;;-146.41;100.00;57768.22;5027496;28;20136;-72
2022/05/28 07:08:24;;;;;;;11.20;1.70;;;14.10;99.90;;;-146.41;100.00;57768.22;5024457;28;20149;-72
2022/05/28 07:10:54;;;;;;;11.82;1.40;;;14.00;99.90;;;-146.41;100.00;57768.22;5024922;28;20057;-72
2022/05/28 07:13:23;;;;;;;14.52;1.50;;;13.90;99.90;;;-146.41;100.00;57768.22;5025971;28;20099;-72
2022/05/28 07:15:51;;;;;;;8.63;1.35;;;14.00;99.90;;;-146.41;100.00;57768.22;5027388;28;20143;-72
2022/05/28 07:18:19;;;;;;;7.45;1.45;;;14.00;99.90;;;-146.41;100.00;57768.22;5025265;28;20050;-71
2022/05/28 07:20:47;;;;;;;8.50;1.60;;;13.80;99.90;;;-146.41;100.00;57768.22;5029621;28;20048;-72
2022/05/28 07:23:18;;;;;;;8.95;1.45;;;13.90;99.90;;;-146.41;100.00;57768.22;5027692;28;20478;-72
2022/05/28 07:25:46;;;;;;;10.77;1.60;;;14.10;99.90;;;-146.41;100.00;57768.22;5024163;28;21625;-72
2022/05/28 07:28:31;;;;;;;7.85;1.58;;;14.40;99.90;;;-146.41;100.00;57768.22;5025529;28;20100;-72
2022/05/28 07:31:09;;;;;;;10.07;1.63;;;14.40;99.90;;;-146.41;100.00;57768.22;5026936;28;20465;-72
2022/05/28 07:33:44;;;;;;;15.43;1.63;;;14.50;99.90;;;-146.41;100.00;57768.22;5024683;28;20097;-72
2022/05/28 07:36:21;;;;;;;10.75;2.00;;;14.60;99.90;;;-146.41;100.00;57768.22;5029369;28;20115;-72
2022/05/28 07:38:49;;;;;;;7.57;1.38;;;14.60;99.90;;;-146.41;100.00;57768.22;5024486;28;20055;-72
2022/05/28 07:41:21;;;;;;;9.02;1.52;;;14.90;99.90;;;-146.41;100.00;57768.22;5028059;28;20458;-71
2022/05/28 07:43:48;;;;;;;9.20;1.67;;;15.10;99.90;;;-146.41;100.00;57768.22;5027983;28;20413;-72
2022/05/28 07:46:29;;;;;;;8.63;1.35;;;15.30;99.90;;;-146.41;100.00;57768.22;5025561;28;20048;-72
2022/05/28 07:48:58;;;;;;;11.32;1.70;;;15.40;99.90;;;-146.41;100.00;57768.22;5024110;28;20068;-72
2022/05/28 07:51:26;;;;;;;9.45;1.50;;;15.20;99.90;;;-146.41;100.00;57768.22;5023969;28;20099;-71
2022/05/28 07:53:53;;;;;;;6.57;1.10;;;15.10;99.90;;;-146.41;100.00;57768.22;5024263;28;20076;-72
2022/05/28 07:56:20;;;;;;;7.68;1.55;;;15.10;99.90;;;-146.41;100.00;57768.22;5028225;28;20199;-71
2022/05/28 07:58:54;;;;;;;13.13;1.40;;;15.20;99.90;;;-146.41;100.00;57768.22;5029311;28;20132;-72
2022/05/28 08:01:30;;;;;;;9.05;1.38;;;15.30;99.90;;;-146.41;100.00;57768.22;5026042;28;20075;-73
2022/05/28 08:04:06;;;;;;;7.63;1.45;;;15.20;99.90;;;-146.41;100.00;57768.22;5022627;28;20068;-71
2022/05/28 08:06:33;;;;;;;9.70;1.58;;;15.40;99.90;;;-146.41;100.00;57768.22;5026747;28;20184;-73
2022/05/28 08:09:01;;;;;;;10.30;1.55;;;15.90;99.90;;;-146.41;100.00;57768.22;5027961;28;20178;-72
2022/05/28 08:11:28;;;;;;;8.43;1.33;;;16.40;99.90;;;-146.41;100.00;57768.22;5026626;28;20863;-72
2022/05/28 08:13:55;;;;;;;7.53;1.17;;;16.60;99.90;;;-146.41;100.00;57768.22;5023618;28;20057;-72
2022/05/28 08:16:26;;;;;;;9.00;1.60;;;17.00;99.90;;;-146.41;100.00;57768.22;5029009;28;20045;-71
2022/05/28 08:18:53;;;;;;;9.80;1.38;;;17.00;99.90;;;-146.41;100.00;57768.22;5024532;28;20046;-72
2022/05/28 08:24:07;;;;;;;6.72;1.30;;;16.90;99.90;;;-146.41;100.00;57768.22;5025906;28;20081;-72
2022/05/28 08:26:35;;;;;;;10.68;1.30;;;16.70;99.90;;;-146.41;100.00;57768.22;5025652;28;20132;-72
2022/05/28 08:29:03;;;;;;;8.27;1.10;;;16.90;99.90;;;-146.41;100.00;57768.22;5021769;28;20409;-72
2022/05/28 08:31:30;;;;;;;6.80;1.27;;;17.30;99.90;;;-146.41;100.00;57768.22;5024214;28;20133;-71
2022/05/28 08:33:57;;;;;;;5.82;1.15;;;17.70;99.90;;;-146.41;100.00;57768.22;5024292;28;20041;-71
2022/05/28 08:36:24;;;;;;;7.38;1.35;;;17.70;99.90;;;-146.41;100.00;57768.22;5026751;28;20077;-72
2022/05/28 08:38:52;;;;;;;10.43;1.58;;;17.50;99.90;;;-146.41;100.00;57768.22;5025094;28;20077;-72
2022/05/28 08:41:36;;;;;;;6.75;0.98;;;17.10;99.90;;;-146.41;100.00;57768.22;5024692;28;20073;-71
2022/05/28 08:44:16;;;;;;;5.40;1.10;;;17.00;99.90;;;-146.41;100.00;57768.22;5027030;28;20053;-72
2022/05/28 08:46:51;;;;;;;5.25;1.00;;;17.10;99.90;;;-146.41;100.00;57768.22;5029084;28;20068;-72
2022/05/28 08:49:23;;;;;;;7.20;1.05;;;17.20;99.90;;;-146.41;100.00;57768.22;5027097;28;20063;-72
2022/05/28 08:52:05;;;;;;;10.93;1.17;;;17.20;99.90;;;-146.41;100.00;57768.22;5022460;28;20141;-72
2022/05/28 08:54:57;;;;;;;8.65;1.20;;;17.20;99.90;;;-146.41;100.00;57768.22;5022808;28;20077;-71
2022/05/28 08:57:58;;;;;;;5.68;1.05;;;17.20;99.90;;;-146.41;100.00;57768.22;5023211;28;20137;-72
2022/05/28 09:00:50;;;;;;;5.45;0.70;;;17.00;99.90;;;-146.41;100.00;57768.22;5029348;28;20144;-72
2022/05/28 09:03:50;;;;;;;9.63;1.10;;;16.90;99.90;;;-146.41;100.00;57768.22;5026351;28;20091;-72
2022/05/28 09:06:25;;;;;;;5.15;0.75;;;17.10;99.90;;;-146.41;100.00;57768.22;5017014;28;20053;-72
2022/05/28 09:08:56;;;;;;;5.63;1.15;;;17.40;99.90;;;-146.41;100.00;57768.22;5019659;28;20069;-72
2022/05/28 09:11:32;;;;;;;7.57;0.90;;;17.80;99.90;;;-146.41;100.00;57768.22;5025557;28;20372;-72
2022/05/28 09:14:28;;;;;;;4.95;1.00;;;17.80;99.90;;;-146.41;100.00;57768.22;5026215;28;20050;-72
2022/05/28 09:17:12;;;;;;;6.78;1.45;;;18.20;99.90;;;-146.41;100.00;57768.22;5027331;28;20085;-72
2022/05/28 09:19:45;;;;;;;6.13;0.80;;;18.30;99.90;;;-146.41;100.00;57768.22;5025770;28;20132;-72
2022/05/28 09:22:13;;;;;;;5.82;0.80;;;18.20;99.90;;;-146.41;100.00;57768.22;5017406;28;20104;-72
2022/05/28 09:24:41;;;;;;;5.10;0.80;;;18.20;99.90;;;-146.41;100.00;57768.22;5013798;28;20499;-71
2022/05/28 09:27:32;;;;;;;6.13;0.85;;;17.80;99.90;;;-146.41;100.00;57768.22;5019156;28;20142;-72
2022/05/28 09:30:08;;;;;;;5.45;0.93;;;17.80;99.90;;;-146.41;100.00;57768.22;5020702;28;20507;-71
2022/05/28 09:33:05;;;;;;;4.85;0.90;;;17.60;99.90;;;-146.41;100.00;57768.22;5023966;28;20071;-72
2022/05/28 09:36:10;;;;;;;4.88;0.70;;;17.50;99.90;;;-146.41;100.00;57768.22;5022631;28;20055;-71
2022/05/28 09:39:19;;;;;;;4.28;0.70;;;17.40;99.90;;;-146.41;100.00;57768.22;5012778;28;20049;-72
2022/05/28 09:42:11;;;;;;;6.03;0.90;;;17.40;99.90;;;-146.41;100.00;57768.22;5024583;28;20095;-71
2022/05/28 09:45:01;;;;;;;4.20;0.73;;;18.40;99.90;;;-146.41;100.00;57768.22;5019733;28;20077;-72
2022/05/28 09:47:46;;;;;;;8.07;0.70;;;19.00;99.90;;;-146.41;100.00;57768.22;5024666;28;20053;-71
2022/05/28 09:50:37;;;;;;;6.53;0.68;;;19.40;99.90;;;-146.41;100.00;57768.22;5023437;28;20124;-73
2022/05/28 09:56:04;;;;;;;6.65;0.90;;;19.10;99.90;;;-146.41;100.00;57768.22;5020936;28;20480;-73
2022/05/28 09:58:38;;;;;;;7.50;1.27;;;19.10;99.90;;;-146.41;100.00;57768.22;5022771;28;20073;-73
2022/05/28 10:01:18;;;;;;;5.63;0.85;;;19.10;99.90;;;-146.41;100.00;57768.22;5023420;28;20456;-72
2022/05/28 10:06:34;;;;;;;5.05;0.98;;;19.70;99.90;;;-146.41;100.00;57768.22;5020213;28;20110;-72
2022/05/28 10:09:22;;;;;;;5.20;0.75;;;;;;;-146.41;100.00;57768.22;5018257;28;20083;-72
2022/05/28 10:12:00;;;;;;;6.47;1.00;;;20.80;99.90;;;-146.41;100.00;57768.22;5024743;28;20647;-73
2022/05/28 10:14:30;;;;;;;5.32;0.73;;;20.90;92.80;;;-146.41;100.00;57768.22;5022344;28;20049;-72
2022/05/28 10:17:02;;;;;;;4.22;0.52;;;21.20;89.50;;;-146.41;100.00;57768.22;5017982;28;20160;-74
2022/05/28 10:19:30;;;;;;;;;;;21.20;89.90;;;-146.41;100.00;57768.22;5021822;28;20069;-73
2022/05/28 10:22:01;;;;;;;4.53;0.60;;;20.80;90.10;;;-146.41;100.00;57768.22;5022234;28;20019;-73
2022/05/28 10:24:40;;;;;;;3.15;0.60;;;20.60;90.10;;;-146.41;100.00;57768.22;5021729;28;20136;-72
2022/05/28 10:27:25;;;;;;;5.22;0.65;;;20.80;90.10;;;-146.41;100.00;57768.22;5012017;28;20519;-73
2022/05/28 10:29:53;;;;;;;2.28;0.40;;;21.00;91.00;;;-146.41;100.00;57768.22;5019195;28;20124;-72
2022/05/28 10:32:34;;;;;;;3.85;0.40;;;20.60;86.90;;;-146.41;100.00;57768.22;5018494;28;20159;-72